Naniwa Maru No.7 — JD2456 — position and weather

sailwx.info

Track history (hours):
 
Tides and Currents Weather Stations Pressure Air Temp Water Temp Dewpoint Dewpoint Depression Visibility Wind Speed Wind Dir Waves Ship Positions

Naniwa Maru No.7

Last reported at 2018-Jan-24 05:17 UTC. Time now 2018-Jan-24 05:51 UTC.
Position N 40°55' E 140°46'.

Length 105 m; draft 5.4 m.

Type: Tanker. MMSI: 431000301.

Date/timePositionNaut miles runAvg speedWind from/ knotsBaromVisibWave heightAir tempDewpointWater temp
2018-Jan-24 05:17N 40°55' E 140°46'0 0.0
2018-Jan-24 04:59N 40°55' E 140°46'0 0.0
2018-Jan-24 04:28N 40°55' E 140°46'0 0.0
2018-Jan-24 03:59N 40°55' E 140°46'0 0.0
2018-Jan-24 03:08N 40°55' E 140°46'0 0.1
2018-Jan-24 02:55N 40°55' E 140°46'0 0.0
2018-Jan-24 02:26N 40°55' E 140°46'0 0.0
2018-Jan-24 02:00N 40°55' E 140°46'0 0.0
2018-Jan-24 01:23N 40°55' E 140°46'0 0.1
2018-Jan-24 00:56N 40°55' E 140°46'0 0.0
2018-Jan-24 00:26N 40°55' E 140°46'0 0.0
2018-Jan-23 23:58N 40°55' E 140°46'0 0.0
2018-Jan-23 23:25N 40°55' E 140°46'0 0.0
2018-Jan-23 22:53N 40°55' E 140°46'0 0.0
2018-Jan-23 22:20N 40°55' E 140°46'0 0.0
2018-Jan-23 21:54N 40°55' E 140°46'0 0.0
2018-Jan-23 21:13N 40°55' E 140°46'0 0.1
2018-Jan-23 20:56N 40°55' E 140°46'0 0.0
2018-Jan-23 20:26N 40°55' E 140°46'0 0.0
2018-Jan-23 19:56N 40°55' E 140°46'0 0.0
2018-Jan-23 19:08N 40°55' E 140°46'0 0.0
2018-Jan-23 18:51N 40°55' E 140°46'0 0.0
2018-Jan-23 16:56N 40°55' E 140°46'0 0.0
2018-Jan-23 11:09N 40°55' E 140°46'5 0.7
2018-Jan-23 03:19N 40°50' E 140°44'1 1.9
2018-Jan-23 02:44N 40°51' E 140°45'310.0
2018-Jan-23 02:27N 40°54' E 140°46'613.3
2018-Jan-23 02:00N 40°60' E 140°45'813.0
2018-Jan-23 01:22N 41°08' E 140°43'512.6
2018-Jan-23 01:00N 41°12' E 140°43'713.4
2018-Jan-23 00:30N 41°19' E 140°44'713.7
2018-Jan-23 00:00N 41°25' E 140°47'713.6
2018-Jan-22 23:30N 41°32' E 140°50'510.7
2018-Jan-22 23:00N 41°36' E 140°54'612.3
2018-Jan-22 22:30N 41°35' E 141°02'612.4
2018-Jan-22 22:01N 41°34' E 141°10'713.4
2018-Jan-22 21:30N 41°32' E 141°19'713.6
2018-Jan-22 21:00N 41°30' E 141°28'612.0
2018-Jan-22 20:30N 41°26' E 141°33'39213.0
2018-Jan-21 14:21N 34°59' E 140°13'514.2
2018-Jan-21 14:00N 34°56' E 140°08'1413.4
2018-Jan-21 12:58N 34°50' E 139°52'714.0
2018-Jan-21 12:30N 34°54' E 139°46'713.7
2018-Jan-21 12:00N 35°01' E 139°43'714.0
2018-Jan-21 11:31N 35°08' E 139°45'713.8
2018-Jan-21 11:00N 35°14' E 139°46'612.8
2018-Jan-21 10:30N 35°20' E 139°43'612.8
2018-Jan-21 10:00N 35°26' E 139°46'713.9
2018-Jan-21 09:30N 35°30' E 139°52'713.9
2018-Jan-21 08:58N 35°32' E 140°01'2 3.9
2018-Jan-21 08:30N 35°32' E 140°03'0 0.0
2018-Jan-21 03:36N 35°32' E 140°03'0 0.1
2018-Jan-21 03:29N 35°32' E 140°03'2 4.4
2018-Jan-21 03:00N 35°33' E 140°01'1 1.1
2018-Jan-21 02:30N 35°33' E 140°00'0 0.0
2018-Jan-21 01:59N 35°33' E 140°00'0 0.0
2018-Jan-21 01:28N 35°33' E 140°00'0 0.0
2018-Jan-21 00:58N 35°33' E 140°00'0 0.0
2018-Jan-21 00:28N 35°33' E 140°00'0 0.0
2018-Jan-20 23:58N 35°33' E 140°00'0 0.8
2018-Jan-20 23:31N 35°33' E 139°60'714.2
2018-Jan-20 23:00N 35°29' E 139°52'714.3
2018-Jan-20 22:30N 35°24' E 139°46'611.5
2018-Jan-20 22:00N 35°18' E 139°44'612.0
2018-Jan-20 21:30N 35°13' E 139°47'714.7
2018-Jan-20 21:00N 35°05' E 139°45'815.1
2018-Jan-20 20:30N 34°58' E 139°42'714.6
2018-Jan-20 20:00N 34°52' E 139°47'1014.3
2018-Jan-20 19:20N 34°51' E 139°58'515.2
2018-Jan-20 18:59N 34°54' E 140°04'914.8
2018-Jan-20 18:24N 34°58' E 140°13'39214.3
2018-Jan-19 15:01N 41°25' E 141°35'115.7
2018-Jan-19 14:58N 41°26' E 141°34'814.9
2018-Jan-19 14:26N 41°30' E 141°26'715.7
2018-Jan-19 14:00N 41°32' E 141°17'816.9
2018-Jan-19 13:30N 41°34' E 141°06'816.7
2018-Jan-19 13:01N 41°37' E 140°56'816.2
2018-Jan-19 12:31N 41°33' E 140°46'815.9
2018-Jan-19 12:01N 41°28' E 140°38'916.5
2018-Jan-19 11:29N 41°24' E 140°28'815.5
2018-Jan-19 11:00N 41°20' E 140°19'3 0.1
2018-Jan-18 10:19N 41°18' E 140°17'613.2
2018-Jan-18 09:50N 41°22' E 140°24'413.0
2018-Jan-18 09:30N 41°24' E 140°28'612.7
2018-Jan-18 09:00N 41°28' E 140°35'714.0
2018-Jan-18 08:30N 41°32' E 140°42'713.6
2018-Jan-18 08:01N 41°36' E 140°50'713.2
2018-Jan-18 07:30N 41°39' E 140°58'713.6
2018-Jan-18 07:00N 41°41' E 141°06'714.2
2018-Jan-18 06:30N 41°46' E 141°14'713.8
2018-Jan-18 06:00N 41°52' E 141°18'  
Track history (hours):
 
Tides and Currents Weather Stations Pressure Air Temp Water Temp Dewpoint Dewpoint Depression Visibility Wind Speed Wind Dir Waves Ship Positions

Naniwa Maru No.7

Last reported at 2018-Jan-24 05:17 UTC. Time now 2018-Jan-24 05:51 UTC.
Position N 40°55' E 140°46'.

Length 105 m; draft 5.4 m.

Type: Tanker. MMSI: 431000301.

Date/timePositionNaut miles runAvg speedWind from/ knotsBaromVisibWave heightAir tempDewpointWater temp
2018-Jan-24 05:17N 40°55' E 140°46'0 0.0
2018-Jan-24 04:59N 40°55' E 140°46'0 0.0
2018-Jan-24 04:28N 40°55' E 140°46'0 0.0
2018-Jan-24 03:59N 40°55' E 140°46'0 0.0
2018-Jan-24 03:08N 40°55' E 140°46'0 0.1
2018-Jan-24 02:55N 40°55' E 140°46'0 0.0
2018-Jan-24 02:26N 40°55' E 140°46'0 0.0
2018-Jan-24 02:00N 40°55' E 140°46'0 0.0
2018-Jan-24 01:23N 40°55' E 140°46'0 0.1
2018-Jan-24 00:56N 40°55' E 140°46'0 0.0
2018-Jan-24 00:26N 40°55' E 140°46'0 0.0
2018-Jan-23 23:58N 40°55' E 140°46'0 0.0
2018-Jan-23 23:25N 40°55' E 140°46'0 0.0
2018-Jan-23 22:53N 40°55' E 140°46'0 0.0
2018-Jan-23 22:20N 40°55' E 140°46'0 0.0
2018-Jan-23 21:54N 40°55' E 140°46'0 0.0
2018-Jan-23 21:13N 40°55' E 140°46'0 0.1
2018-Jan-23 20:56N 40°55' E 140°46'0 0.0
2018-Jan-23 20:26N 40°55' E 140°46'0 0.0
2018-Jan-23 19:56N 40°55' E 140°46'0 0.0
2018-Jan-23 19:08N 40°55' E 140°46'0 0.0
2018-Jan-23 18:51N 40°55' E 140°46'0 0.0
2018-Jan-23 16:56N 40°55' E 140°46'0 0.0
2018-Jan-23 11:09N 40°55' E 140°46'5 0.7
2018-Jan-23 03:19N 40°50' E 140°44'1 1.9
2018-Jan-23 02:44N 40°51' E 140°45'310.0
2018-Jan-23 02:27N 40°54' E 140°46'613.3
2018-Jan-23 02:00N 40°60' E 140°45'813.0
2018-Jan-23 01:22N 41°08' E 140°43'512.6
2018-Jan-23 01:00N 41°12' E 140°43'713.4
2018-Jan-23 00:30N 41°19' E 140°44'713.7
2018-Jan-23 00:00N 41°25' E 140°47'713.6
2018-Jan-22 23:30N 41°32' E 140°50'510.7
2018-Jan-22 23:00N 41°36' E 140°54'612.3
2018-Jan-22 22:30N 41°35' E 141°02'612.4
2018-Jan-22 22:01N 41°34' E 141°10'713.4
2018-Jan-22 21:30N 41°32' E 141°19'713.6
2018-Jan-22 21:00N 41°30' E 141°28'612.0
2018-Jan-22 20:30N 41°26' E 141°33'39213.0
2018-Jan-21 14:21N 34°59' E 140°13'514.2
2018-Jan-21 14:00N 34°56' E 140°08'1413.4
2018-Jan-21 12:58N 34°50' E 139°52'714.0
2018-Jan-21 12:30N 34°54' E 139°46'713.7
2018-Jan-21 12:00N 35°01' E 139°43'714.0
2018-Jan-21 11:31N 35°08' E 139°45'713.8
2018-Jan-21 11:00N 35°14' E 139°46'612.8
2018-Jan-21 10:30N 35°20' E 139°43'612.8
2018-Jan-21 10:00N 35°26' E 139°46'713.9
2018-Jan-21 09:30N 35°30' E 139°52'713.9
2018-Jan-21 08:58N 35°32' E 140°01'2 3.9
2018-Jan-21 08:30N 35°32' E 140°03'0 0.0
2018-Jan-21 03:36N 35°32' E 140°03'0 0.1
2018-Jan-21 03:29N 35°32' E 140°03'2 4.4
2018-Jan-21 03:00N 35°33' E 140°01'1 1.1
2018-Jan-21 02:30N 35°33' E 140°00'0 0.0
2018-Jan-21 01:59N 35°33' E 140°00'0 0.0
2018-Jan-21 01:28N 35°33' E 140°00'0 0.0
2018-Jan-21 00:58N 35°33' E 140°00'0 0.0
2018-Jan-21 00:28N 35°33' E 140°00'0 0.0
2018-Jan-20 23:58N 35°33' E 140°00'0 0.8
2018-Jan-20 23:31N 35°33' E 139°60'714.2
2018-Jan-20 23:00N 35°29' E 139°52'714.3
2018-Jan-20 22:30N 35°24' E 139°46'611.5
2018-Jan-20 22:00N 35°18' E 139°44'612.0
2018-Jan-20 21:30N 35°13' E 139°47'714.7
2018-Jan-20 21:00N 35°05' E 139°45'815.1
2018-Jan-20 20:30N 34°58' E 139°42'714.6
2018-Jan-20 20:00N 34°52' E 139°47'1014.3
2018-Jan-20 19:20N 34°51' E 139°58'515.2
2018-Jan-20 18:59N 34°54' E 140°04'914.8
2018-Jan-20 18:24N 34°58' E 140°13'39214.3
2018-Jan-19 15:01N 41°25' E 141°35'115.7
2018-Jan-19 14:58N 41°26' E 141°34'814.9
2018-Jan-19 14:26N 41°30' E 141°26'715.7
2018-Jan-19 14:00N 41°32' E 141°17'816.9
2018-Jan-19 13:30N 41°34' E 141°06'816.7
2018-Jan-19 13:01N 41°37' E 140°56'816.2
2018-Jan-19 12:31N 41°33' E 140°46'815.9
2018-Jan-19 12:01N 41°28' E 140°38'916.5
2018-Jan-19 11:29N 41°24' E 140°28'815.5
2018-Jan-19 11:00N 41°20' E 140°19'3 0.1
2018-Jan-18 10:19N 41°18' E 140°17'613.2
2018-Jan-18 09:50N 41°22' E 140°24'413.0
2018-Jan-18 09:30N 41°24' E 140°28'612.7
2018-Jan-18 09:00N 41°28' E 140°35'714.0
2018-Jan-18 08:30N 41°32' E 140°42'713.6
2018-Jan-18 08:01N 41°36' E 140°50'713.2
2018-Jan-18 07:30N 41°39' E 140°58'713.6
2018-Jan-18 07:00N 41°41' E 141°06'714.2
2018-Jan-18 06:30N 41°46' E 141°14'713.8
2018-Jan-18 06:00N 41°52' E 141°18'  

Dump ship's entire track history